Time;durP1;ratioP1;P1;durP2;ratioP2;P2;SDS_P1;SDS_P2;PMS_P1;PMS_P2;Temp;Humidity;BMP_temperature;BMP_pressure;BME280_temperature;BME280_humidity;BME280_pressure;Samples;Min_cycle;Max_cycle;Signal;HPM_P1;HPM_P2
2023/01/14 00:01:59;;;;;;;4.43;2.13;;;7.30;99.90;;;;;;5249823;28;20425;-48
2023/01/14 00:04:30;;;;;;;5.13;2.77;;;7.30;99.90;;;;;;5228618;28;20710;-49
2023/01/14 00:07:01;;;;;;;3.83;2.17;;;7.30;99.90;;;;;;5242830;28;20520;-48
2023/01/14 00:09:32;;;;;;;3.83;2.20;;;7.30;99.90;;;;;;5238655;28;20994;-48
2023/01/14 00:12:03;;;;;;;5.33;2.03;;;7.30;99.90;;;;;;5245948;28;20687;-47
2023/01/14 00:14:34;;;;;;;8.97;1.47;;;7.30;99.90;;;;;;5243103;28;20274;-50
2023/01/14 00:17:05;;;;;;;6.40;2.17;;;7.30;99.90;;;;;;5246553;28;20997;-53
2023/01/14 00:19:37;;;;;;;9.30;2.77;;;7.30;99.90;;;;;;5247186;28;20234;-47
2023/01/14 00:22:08;;;;;;;10.53;2.00;;;7.30;99.90;;;;;;5219885;28;20183;-48
2023/01/14 00:24:40;;;;;;;7.00;2.77;;;7.40;99.90;;;;;;5240752;28;20830;-48
2023/01/14 00:27:12;;;;;;;5.50;2.30;;;7.50;99.90;;;;;;5229320;28;20178;-50
2023/01/14 00:29:42;;;;;;;10.63;2.30;;;7.60;99.90;;;;;;5242492;28;20447;-47
2023/01/14 00:32:13;;;;;;;3.50;2.27;;;7.70;99.90;;;;;;5241598;28;20478;-48
2023/01/14 00:34:44;;;;;;;3.90;2.07;;;7.70;99.90;;;;;;5241435;28;20671;-50
2023/01/14 00:37:15;;;;;;;4.70;1.50;;;7.90;99.90;;;;;;5243652;28;20436;-47
2023/01/14 00:39:46;;;;;;;6.03;2.70;;;7.90;99.90;;;;;;5245382;28;20682;-48
2023/01/14 00:42:16;;;;;;;3.70;1.77;;;7.90;99.90;;;;;;5239387;28;20257;-48
2023/01/14 00:44:47;;;;;;;2.13;1.70;;;7.90;99.90;;;;;;5232338;28;20272;-48
2023/01/14 00:47:18;;;;;;;4.87;2.30;;;7.90;99.90;;;;;;5248904;28;20190;-49
2023/01/14 00:49:48;;;;;;;6.83;1.83;;;7.80;99.90;;;;;;5237074;28;20557;-49
2023/01/14 00:52:19;;;;;;;5.30;1.90;;;7.90;99.90;;;;;;5226521;28;20178;-48
2023/01/14 00:54:50;;;;;;;3.13;1.80;;;7.90;99.90;;;;;;5243295;28;20214;-47
2023/01/14 00:57:20;;;;;;;6.00;1.83;;;7.90;99.90;;;;;;5242036;28;20187;-47
2023/01/14 00:59:51;;;;;;;8.50;2.07;;;7.80;99.90;;;;;;5222563;28;20194;-47
2023/01/14 01:02:22;;;;;;;2.80;1.77;;;7.90;99.90;;;;;;5242222;28;20576;-47
2023/01/14 01:04:52;;;;;;;2.90;1.23;;;8.00;99.90;;;;;;5239303;28;20233;-47
2023/01/14 01:07:23;;;;;;;1.80;1.50;;;8.10;99.90;;;;;;5242975;28;20657;-49
2023/01/14 01:09:54;;;;;;;3.90;1.50;;;8.00;99.90;;;;;;5237602;28;20329;-49
2023/01/14 01:12:25;;;;;;;9.03;2.00;;;8.00;99.90;;;;;;5242541;28;20712;-51
2023/01/14 01:14:55;;;;;;;3.83;1.30;;;7.90;99.90;;;;;;5246618;28;20198;-48
2023/01/14 01:17:28;;;;;;;1.77;1.53;;;8.00;99.90;;;;;;5250453;28;20178;-48
2023/01/14 01:19:59;;;;;;;5.90;1.60;;;8.10;99.90;;;;;;5236226;28;20221;-48
2023/01/14 01:22:30;;;;;;;3.07;1.37;;;8.00;99.90;;;;;;5245076;28;20429;-51
2023/01/14 01:25:00;;;;;;;4.40;1.57;;;8.00;99.90;;;;;;5249460;28;20210;-50
2023/01/14 01:27:31;;;;;;;3.17;1.77;;;8.00;99.90;;;;;;5232115;28;20174;-48
2023/01/14 01:30:02;;;;;;;3.53;1.37;;;7.90;99.90;;;;;;5248087;28;20679;-48
2023/01/14 01:32:32;;;;;;;7.47;2.00;;;7.90;99.90;;;;;;5234967;28;20174;-48
2023/01/14 01:35:04;;;;;;;4.10;0.80;;;7.90;99.90;;;;;;5238567;28;20433;-48
2023/01/14 01:37:35;;;;;;;3.37;1.23;;;8.00;99.90;;;;;;5234671;28;20803;-48
2023/01/14 01:40:07;;;;;;;3.93;2.00;;;7.90;99.90;;;;;;5240897;28;20532;-47
2023/01/14 01:42:54;;;;;;;3.03;1.63;;;7.90;99.90;;;;;;5234627;28;20948;-48
2023/01/14 01:45:43;;;;;;;2.50;1.50;;;8.00;99.90;;;;;;5250071;28;20853;-52
2023/01/14 01:48:19;;;;;;;5.13;1.73;;;8.00;99.90;;;;;;5237333;28;20582;-50
2023/01/14 01:50:57;;;;;;;3.17;1.50;;;8.00;99.90;;;;;;5229841;28;20424;-49
2023/01/14 01:53:29;;;;;;;4.93;1.80;;;7.90;99.90;;;;;;5250970;28;20408;-48
2023/01/14 01:56:00;;;;;;;11.67;2.77;;;7.90;99.90;;;;;;5250482;28;20438;-52
2023/01/14 01:58:32;;;;;;;9.17;1.90;;;7.80;99.90;;;;;;5235912;28;20466;-50
2023/01/14 02:01:03;;;;;;;6.53;2.27;;;7.80;99.90;;;;;;5254584;28;20456;-48
2023/01/14 02:03:41;;;;;;;3.40;2.17;;;7.70;99.90;;;;;;5226363;28;20448;-47
2023/01/14 02:06:12;;;;;;;10.00;2.10;;;7.80;99.90;;;;;;5255369;28;20535;-48
2023/01/14 02:08:50;;;;;;;4.27;1.50;;;7.80;99.90;;;;;;5250304;28;21084;-50
2023/01/14 02:11:55;;;;;;;5.80;1.70;;;7.70;99.90;;;;;;5237921;28;20432;-47
2023/01/14 02:14:47;;;;;;;5.03;1.20;;;7.70;99.90;;;;;;5245902;28;20460;-49
2023/01/14 02:17:43;;;;;;;9.20;1.73;;;7.70;99.90;;;;;;5248985;28;20421;-48
2023/01/14 02:20:34;;;;;;;2.80;1.13;;;7.70;99.90;;;;;;5250497;28;20444;-48
2023/01/14 02:23:05;;;;;;;1.57;1.20;;;7.80;99.90;;;;;;5260255;28;20435;-52
2023/01/14 02:26:09;;;;;;;5.60;1.60;;;7.70;99.90;;;;;;5251298;28;20467;-49
2023/01/14 02:28:44;;;;;;;2.30;1.43;;;7.70;99.90;;;;;;5244813;28;20221;-49
2023/01/14 02:31:23;;;;;;;1.17;1.07;;;7.80;99.90;;;;;;5224630;28;20440;-50
2023/01/14 02:33:59;;;;;;;6.53;1.80;;;7.70;99.90;;;;;;5254081;28;20440;-47
2023/01/14 02:36:39;;;;;;;13.13;1.50;;;7.70;99.90;;;;;;5253866;28;20433;-48
2023/01/14 02:39:14;;;;;;;3.57;1.73;;;7.60;99.90;;;;;;5233115;28;20494;-52
2023/01/14 02:44:55;;;;;;;10.40;2.17;;;7.50;99.90;;;;;;5244453;28;20510;-48
2023/01/14 02:47:27;;;;;;;2.07;1.37;;;7.60;99.90;;;;;;5239709;28;20994;-47
2023/01/14 02:50:00;;;;;;;6.53;1.83;;;7.50;99.90;;;;;;5246217;28;20495;-47
2023/01/14 02:52:31;;;;;;;3.57;1.33;;;7.30;99.90;;;;;;5230000;28;20424;-49
2023/01/14 02:55:05;;;;;;;1.53;1.23;;;7.30;99.90;;;;;;5247664;28;20501;-50
2023/01/14 02:57:38;;;;;;;1.20;1.20;;;7.30;99.90;;;;;;5243785;28;20193;-48
2023/01/14 03:00:09;;;;;;;2.50;1.30;;;7.40;99.90;;;;;;5220080;28;20913;-49
2023/01/14 03:02:50;;;;;;;7.63;1.93;;;7.20;99.90;;;;;;5255754;28;20416;-48
2023/01/14 03:05:58;;;;;;;1.63;1.50;;;7.20;99.90;;;;;;5226098;28;20465;-47
2023/01/14 03:09:03;;;;;;;7.80;1.50;;;7.10;99.90;;;;;;5203601;28;20461;-48
2023/01/14 03:11:43;;;;;;;2.47;1.60;;;7.00;99.90;;;;;;5230542;28;20444;-48
2023/01/14 03:14:57;;;;;;;2.20;1.53;;;6.90;99.90;;;;;;5250464;28;20929;-48
2023/01/14 03:17:34;;;;;;;2.20;2.00;;;6.90;99.90;;;;;;5180089;28;20433;-48
2023/01/14 03:20:26;;;;;;;3.17;1.63;;;6.90;99.90;;;;;;5251295;28;20882;-48
2023/01/14 03:23:00;;;;;;;8.00;1.90;;;6.90;99.90;;;;;;5243671;28;20933;-48
2023/01/14 03:25:35;;;;;;;7.10;2.00;;;6.80;99.90;;;;;;5245805;28;21417;-50
2023/01/14 03:28:10;;;;;;;6.30;1.80;;;6.80;99.90;;;;;;5230717;28;21951;-49
2023/01/14 03:30:47;;;;;;;3.50;2.60;;;6.60;99.90;;;;;;5245305;28;20501;-48
2023/01/14 03:33:30;;;;;;;3.83;2.10;;;6.50;99.90;;;;;;5227656;28;20463;-49
2023/01/14 03:36:04;;;;;;;4.47;1.80;;;6.60;99.90;;;;;;5245350;28;20437;-48
2023/01/14 03:38:59;;;;;;;1.30;1.20;;;6.50;99.90;;;;;;5249485;28;20467;-48
2023/01/14 03:44:26;;;;;;;8.13;1.97;;;6.50;99.90;;;;;;5243647;28;20460;-49
2023/01/14 03:46:58;;;;;;;4.43;2.13;;;6.50;99.90;;;;;;5230662;28;20463;-50
2023/01/14 03:49:28;;;;;;;2.43;1.20;;;6.50;99.90;;;;;;5245746;28;20464;-51
2023/01/14 03:52:09;;;;;;;8.47;1.77;;;6.50;99.90;;;;;;5247983;28;20436;-49
2023/01/14 03:55:06;;;;;;;1.80;1.63;;;6.60;99.90;;;;;;5229344;28;20186;-50
2023/01/14 03:57:43;;;;;;;11.40;2.53;;;6.50;99.90;;;;;;5225354;28;20451;-49
2023/01/14 04:00:33;;;;;;;3.93;1.77;;;6.60;99.90;;;;;;5242503;28;20476;-52
2023/01/14 04:03:09;;;;;;;6.60;1.60;;;6.50;99.90;;;;;;5226553;28;20446;-53
2023/01/14 04:05:40;;;;;;;4.97;1.97;;;6.50;99.90;;;;;;5241993;28;20995;-49
2023/01/14 04:08:11;;;;;;;6.43;1.70;;;6.60;99.90;;;;;;5224276;28;20531;-49
2023/01/14 04:10:42;;;;;;;8.73;2.27;;;6.50;99.90;;;;;;5242694;28;20519;-49
2023/01/14 04:16:04;;;;;;;3.63;1.60;;;6.50;99.90;;;;;;5235277;28;20182;-50
2023/01/14 04:18:35;;;;;;;4.00;1.63;;;6.50;99.90;;;;;;5243817;28;20468;-52
2023/01/14 04:21:06;;;;;;;6.83;1.33;;;6.50;99.90;;;;;;5227855;28;20190;-50
2023/01/14 04:23:36;;;;;;;3.27;1.30;;;6.50;99.90;;;;;;5245081;28;20554;-49
2023/01/14 04:26:08;;;;;;;4.40;1.67;;;6.70;99.90;;;;;;5241017;28;20280;-49
2023/01/14 04:28:39;;;;;;;15.43;1.70;;;6.60;99.90;;;;;;5240168;28;20199;-50
2023/01/14 04:31:10;;;;;;;2.30;1.33;;;6.60;99.90;;;;;;5238453;28;20784;-49
2023/01/14 04:33:40;;;;;;;8.93;1.83;;;6.60;99.90;;;;;;5241975;28;20244;-49
2023/01/14 04:36:11;;;;;;;7.00;2.40;;;6.60;99.90;;;;;;5231088;28;20272;-50
2023/01/14 04:38:42;;;;;;;6.83;1.90;;;6.60;99.90;;;;;;5248278;28;20218;-49
2023/01/14 04:44:02;;;;;;;7.30;1.50;;;6.70;99.90;;;;;;5246330;28;20458;-49
2023/01/14 04:46:32;;;;;;;14.83;2.17;;;6.70;99.90;;;;;;5241486;28;20433;-51
2023/01/14 04:49:03;;;;;;;3.07;1.73;;;6.80;99.90;;;;;;5239181;28;20217;-51
2023/01/14 04:51:34;;;;;;;6.03;1.93;;;6.80;99.90;;;;;;5233847;28;20178;-50
2023/01/14 04:54:05;;;;;;;3.23;1.37;;;6.80;99.90;;;;;;5249476;28;20197;-51
2023/01/14 04:56:35;;;;;;;3.80;1.23;;;6.80;99.90;;;;;;5255202;28;20601;-49
2023/01/14 04:59:06;;;;;;;5.07;1.73;;;6.90;99.90;;;;;;5229817;28;20214;-52
2023/01/14 05:01:37;;;;;;;2.10;1.17;;;6.90;99.90;;;;;;5250110;28;20186;-49
2023/01/14 05:04:07;;;;;;;5.70;1.63;;;6.90;99.90;;;;;;5243348;28;20194;-51
2023/01/14 05:06:38;;;;;;;4.20;1.50;;;7.00;99.90;;;;;;5242720;28;20283;-51
2023/01/14 05:09:09;;;;;;;1.63;1.50;;;7.10;99.90;;;;;;5231908;28;20199;-49
2023/01/14 05:11:40;;;;;;;2.37;1.27;;;7.10;99.90;;;;;;5226748;28;20179;-49
2023/01/14 05:14:10;;;;;;;6.43;1.70;;;7.10;99.90;;;;;;5241258;28;20186;-49
2023/01/14 05:16:41;;;;;;;1.33;0.90;;;7.20;99.90;;;;;;5248480;28;20247;-50
2023/01/14 05:19:14;;;;;;;1.43;1.33;;;7.30;99.90;;;;;;5246995;28;20261;-51
2023/01/14 05:21:45;;;;;;;6.23;1.83;;;7.30;99.90;;;;;;5249575;28;20261;-48
2023/01/14 05:24:16;;;;;;;2.20;1.80;;;7.20;99.90;;;;;;5231049;28;21562;-50
2023/01/14 05:26:46;;;;;;;1.17;1.00;;;7.20;99.90;;;;;;5247063;28;20253;-51
2023/01/14 05:29:17;;;;;;;2.40;1.33;;;7.20;99.90;;;;;;5247968;28;20682;-49
2023/01/14 05:31:48;;;;;;;1.33;1.10;;;7.20;99.90;;;;;;5247944;28;20193;-49
2023/01/14 05:34:19;;;;;;;4.93;1.40;;;7.20;99.90;;;;;;5241540;28;20178;-48
2023/01/14 05:36:50;;;;;;;1.43;1.23;;;7.20;99.90;;;;;;5245506;28;20444;-49
2023/01/14 05:39:20;;;;;;;2.40;1.40;;;7.30;99.90;;;;;;5212984;28;21343;-49
2023/01/14 05:47:40;;;;;;;4.63;1.60;;;7.40;99.90;;;;;;5211921;28;20912;-49
2023/01/14 05:50:12;;;;;;;6.17;1.37;;;7.40;99.90;;;;;;5245923;28;20432;-48
2023/01/14 05:52:42;;;;;;;3.90;1.67;;;7.40;99.90;;;;;;5230021;28;20185;-48
2023/01/14 05:55:13;;;;;;;3.50;1.43;;;7.50;99.90;;;;;;5247600;28;20440;-48
2023/01/14 05:57:44;;;;;;;13.30;1.73;;;7.50;99.90;;;;;;5241878;28;20556;-49
2023/01/14 06:08:36;;;;;;;2.27;1.60;;;7.50;99.90;;;;;;5247530;28;20457;-49
2023/01/14 06:11:08;;;;;;;8.80;2.17;;;7.50;99.90;;;;;;5242718;28;20435;-48
2023/01/14 06:13:39;;;;;;;2.10;1.10;;;7.50;99.90;;;;;;5230180;28;20201;-50
2023/01/14 06:16:10;;;;;;;6.73;2.00;;;7.50;99.90;;;;;;5233633;28;20472;-49
2023/01/14 06:18:43;;;;;;;4.43;1.70;;;7.50;99.90;;;;;;5227058;28;20688;-49
2023/01/14 06:21:18;;;;;;;5.37;1.10;;;7.60;99.90;;;;;;5249362;28;20249;-50
2023/01/14 06:23:49;;;;;;;7.40;1.70;;;7.50;99.90;;;;;;5238552;28;20429;-49
2023/01/14 06:26:21;;;;;;;5.70;1.57;;;7.60;99.90;;;;;;5229284;28;20567;-48
2023/01/14 06:28:57;;;;;;;2.20;1.23;;;7.60;99.90;;;;;;5210106;28;20456;-50
2023/01/14 06:31:28;;;;;;;2.30;1.50;;;7.60;99.90;;;;;;5229287;28;20434;-49
2023/01/14 06:34:01;;;;;;;11.33;2.00;;;7.50;99.90;;;;;;5241377;28;20457;-49
2023/01/14 06:36:37;;;;;;;3.53;1.40;;;7.70;99.90;;;;;;5241194;28;20429;-50
2023/01/14 06:39:08;;;;;;;4.17;1.43;;;7.60;99.90;;;;;;5236618;28;20464;-49
2023/01/14 06:41:38;;;;;;;20.70;1.70;;;7.60;99.90;;;;;;5236089;28;20428;-50
2023/01/14 06:44:09;;;;;;;3.07;1.37;;;7.60;99.90;;;;;;5241463;28;20210;-48
2023/01/14 06:46:40;;;;;;;6.43;1.20;;;7.60;99.90;;;;;;5226148;28;20212;-49
2023/01/14 06:49:11;;;;;;;5.30;1.60;;;7.50;99.90;;;;;;5222242;28;20634;-48
2023/01/14 06:51:42;;;;;;;6.07;1.73;;;7.40;99.90;;;;;;5246098;28;20182;-48
2023/01/14 06:54:13;;;;;;;2.97;1.37;;;7.40;99.90;;;;;;5239011;28;20190;-51
2023/01/14 06:56:44;;;;;;;4.33;1.43;;;7.30;99.90;;;;;;5242458;28;20198;-48
2023/01/14 06:59:15;;;;;;;8.77;1.87;;;7.20;99.90;;;;;;5228873;28;20527;-52
2023/01/14 07:01:45;;;;;;;3.43;1.33;;;7.30;99.90;;;;;;5245310;28;20511;-48
2023/01/14 07:04:16;;;;;;;5.47;1.63;;;7.30;99.90;;;;;;5223648;28;20212;-48
2023/01/14 07:06:47;;;;;;;2.73;1.77;;;7.20;99.90;;;;;;5225914;28;20178;-48
2023/01/14 07:09:17;;;;;;;3.63;1.40;;;7.20;99.90;;;;;;5228853;28;20197;-47
2023/01/14 07:11:48;;;;;;;2.63;1.60;;;7.20;99.90;;;;;;5232599;28;20179;-48
2023/01/14 07:14:19;;;;;;;5.83;1.30;;;7.20;99.90;;;;;;5228708;28;20178;-47
2023/01/14 07:16:50;;;;;;;2.13;1.00;;;7.20;99.90;;;;;;5242599;28;20170;-47
2023/01/14 07:19:20;;;;;;;3.77;1.30;;;7.20;99.90;;;;;;5237748;28;20686;-48
2023/01/14 07:21:51;;;;;;;3.43;2.07;;;7.30;99.90;;;;;;5234268;28;20209;-48
2023/01/14 07:24:22;;;;;;;7.80;2.17;;;7.10;99.90;;;;;;5242955;28;20283;-48
2023/01/14 07:26:52;;;;;;;3.30;1.43;;;7.10;99.90;;;;;;5243324;28;20647;-47
2023/01/14 07:29:23;;;;;;;1.40;1.00;;;7.20;99.90;;;;;;5223230;28;20663;-48
2023/01/14 07:31:54;;;;;;;5.33;1.40;;;7.10;99.90;;;;;;5245351;28;20179;-51
2023/01/14 07:34:25;;;;;;;2.57;1.53;;;7.00;99.90;;;;;;5248082;28;20257;-51
2023/01/14 07:36:55;;;;;;;2.87;1.60;;;7.00;99.90;;;;;;5223160;28;20186;-53
2023/01/14 07:39:26;;;;;;;3.90;2.00;;;7.00;99.90;;;;;;5223953;28;20582;-49
2023/01/14 07:41:57;;;;;;;5.30;2.07;;;7.00;99.90;;;;;;5244987;28;20253;-48
2023/01/14 07:44:27;;;;;;;0.90;0.90;;;7.00;99.90;;;;;;5224772;28;20356;-51
2023/01/14 07:46:58;;;;;;;7.17;1.27;;;7.00;99.90;;;;;;5228314;28;20170;-50
2023/01/14 07:49:29;;;;;;;1.50;1.27;;;7.10;99.90;;;;;;5219163;28;20206;-50
2023/01/14 07:51:59;;;;;;;2.93;1.50;;;7.10;99.90;;;;;;5216834;28;20186;-52
2023/01/14 07:54:30;;;;;;;8.53;2.27;;;7.10;99.90;;;;;;5240782;28;20618;-49
2023/01/14 07:57:01;;;;;;;2.10;1.40;;;7.10;99.90;;;;;;5241709;28;20183;-47
2023/01/14 07:59:31;;;;;;;4.47;1.43;;;7.20;99.90;;;;;;5231716;28;20278;-53
2023/01/14 08:02:02;;;;;;;4.87;1.50;;;7.20;99.90;;;;;;5229006;28;20187;-50
2023/01/14 08:04:33;;;;;;;2.87;2.00;;;7.30;99.90;;;;;;5223163;28;20249;-48
2023/01/14 08:07:08;;;;;;;5.80;2.37;;;7.30;99.90;;;;;;5226395;28;20174;-50
2023/01/14 08:09:39;;;;;;;5.47;1.77;;;7.40;99.90;;;;;;5248748;28;20293;-50
2023/01/14 08:12:09;;;;;;;2.30;2.10;;;7.50;99.90;;;;;;5256355;28;20964;-49
2023/01/14 08:14:40;;;;;;;2.90;1.90;;;7.60;99.90;;;;;;5256677;28;20192;-49
2023/01/14 08:17:11;;;;;;;3.40;1.97;;;7.60;99.90;;;;;;5256008;28;20181;-51
2023/01/14 08:19:43;;;;;;;4.80;2.07;;;7.60;99.90;;;;;;5248921;28;20745;-49
2023/01/14 08:22:14;;;;;;;5.30;2.00;;;7.60;99.90;;;;;;5241751;28;20186;-51
2023/01/14 08:24:44;;;;;;;3.07;2.07;;;7.60;99.90;;;;;;5250626;28;20457;-49
2023/01/14 08:27:15;;;;;;;7.90;1.90;;;7.60;99.90;;;;;;5250448;28;20247;-49
2023/01/14 08:29:46;;;;;;;6.87;1.70;;;7.60;99.90;;;;;;5251917;28;20205;-51
2023/01/14 08:32:17;;;;;;;5.73;1.70;;;7.60;99.90;;;;;;5253446;28;20959;-48
2023/01/14 08:34:48;;;;;;;6.90;1.40;;;7.60;99.90;;;;;;5241106;28;20232;-51
2023/01/14 08:37:19;;;;;;;1.93;1.73;;;7.60;99.90;;;;;;5246612;28;20779;-50
2023/01/14 08:39:50;;;;;;;4.67;1.60;;;7.70;99.90;;;;;;5239829;28;20209;-52
2023/01/14 08:42:20;;;;;;;4.47;1.60;;;7.70;99.90;;;;;;5250613;28;20190;-50
2023/01/14 08:44:51;;;;;;;2.30;1.60;;;7.70;99.90;;;;;;5194587;28;20228;-52
2023/01/14 08:47:22;;;;;;;5.27;1.73;;;7.70;99.90;;;;;;5207334;28;20197;-50
2023/01/14 08:49:52;;;;;;;4.17;2.20;;;7.70;99.90;;;;;;5207731;28;20202;-50
2023/01/14 08:52:23;;;;;;;6.63;2.77;;;7.80;99.90;;;;;;5240912;28;20283;-50
2023/01/14 08:54:53;;;;;;;10.03;2.07;;;7.90;99.90;;;;;;5224219;28;20218;-50
2023/01/14 08:57:24;;;;;;;2.30;2.00;;;7.90;99.90;;;;;;5240657;28;20185;-50
2023/01/14 08:59:55;;;;;;;6.43;1.90;;;7.90;99.90;;;;;;5252909;28;20742;-49
2023/01/14 09:02:26;;;;;;;7.20;2.07;;;8.00;99.90;;;;;;5252341;28;20200;-52
2023/01/14 09:04:57;;;;;;;5.07;2.00;;;8.10;99.90;;;;;;5251549;28;20209;-49
2023/01/14 09:18:46;;;;;;;5.37;1.50;;;8.60;99.90;;;;;;5247438;28;20502;-50
2023/01/14 09:21:17;;;;;;;3.47;1.60;;;8.70;99.90;;;;;;5234940;28;20519;-51
2023/01/14 09:23:48;;;;;;;4.50;2.73;;;8.90;99.90;;;;;;5259873;28;20546;-50
2023/01/14 09:26:20;;;;;;;5.20;2.43;;;9.00;99.90;;;;;;5234952;28;20621;-51
2023/01/14 09:28:51;;;;;;;15.13;2.07;;;9.20;99.90;;;;;;5252048;28;20198;-50
2023/01/14 09:31:22;;;;;;;11.10;3.10;;;9.20;99.90;;;;;;5232580;28;20436;-50
2023/01/14 09:33:52;;;;;;;7.63;2.10;;;9.20;99.90;;;;;;5256149;28;20419;-50
2023/01/14 09:36:23;;;;;;;6.07;1.67;;;9.20;99.90;;;;;;5253712;28;20189;-52
2023/01/14 09:38:54;;;;;;;4.73;1.67;;;9.20;99.90;;;;;;5240600;28;20204;-53
2023/01/14 09:41:27;;;;;;;4.87;2.03;;;9.20;99.90;;;;;;5232900;28;20186;-52
2023/01/14 09:43:59;;;;;;;6.83;2.10;;;9.30;99.90;;;;;;5256866;28;20186;-54
2023/01/14 09:46:31;;;;;;;11.17;2.33;;;9.40;99.90;;;;;;5257033;28;20460;-52
2023/01/14 09:49:04;;;;;;;5.03;1.43;;;9.40;99.90;;;;;;5246241;28;20558;-54
2023/01/14 09:51:48;;;;;;;6.43;1.60;;;9.50;99.90;;;;;;5253787;28;20421;-53
2023/01/14 09:55:00;;;;;;;14.83;2.20;;;9.60;99.90;;;;;;5257625;28;20444;-53
2023/01/14 09:57:55;;;;;;;5.33;1.80;;;9.70;99.90;;;;;;5242706;28;20428;-53
2023/01/14 10:00:32;;;;;;;3.30;1.60;;;9.80;99.90;;;;;;5255926;28;21201;-52
2023/01/14 10:03:18;;;;;;;8.10;1.70;;;9.90;99.90;;;;;;5253073;28;20424;-54
2023/01/14 10:06:16;;;;;;;2.20;1.70;;;9.80;99.90;;;;;;5251881;28;20507;-54
2023/01/14 10:09:11;;;;;;;3.33;1.30;;;10.00;99.90;;;;;;5227768;28;20460;-52
2023/01/14 10:11:45;;;;;;;8.70;2.40;;;9.90;99.90;;;;;;5229003;28;20746;-53
2023/01/14 10:14:26;;;;;;;12.57;2.43;;;9.90;99.90;;;;;;5245344;28;21038;-52
2023/01/14 10:17:03;;;;;;;4.63;1.73;;;9.60;99.90;;;;;;5227234;28;20519;-52
2023/01/14 10:19:43;;;;;;;13.40;2.70;;;9.50;99.90;;;;;;5226911;28;20591;-53
2023/01/14 10:22:28;;;;;;;3.77;1.40;;;9.40;99.90;;;;;;5229255;28;20423;-52
2023/01/14 10:24:59;;;;;;;16.70;2.27;;;9.30;99.90;;;;;;5245203;28;21044;-52
2023/01/14 10:27:31;;;;;;;2.40;1.80;;;9.20;99.90;;;;;;5247938;28;20427;-52
2023/01/14 10:30:22;;;;;;;4.53;1.70;;;9.20;99.90;;;;;;5223873;28;20239;-52
2023/01/14 10:32:54;;;;;;;7.93;2.33;;;9.30;99.90;;;;;;5245747;28;20433;-49
2023/01/14 10:35:34;;;;;;;5.83;2.60;;;9.30;99.90;;;;;;5239402;28;20436;-53
2023/01/14 10:38:05;;;;;;;8.60;2.60;;;9.40;99.90;;;;;;5247808;28;20460;-52
2023/01/14 10:40:36;;;;;;;4.10;2.33;;;9.40;99.90;;;;;;5239828;28;20782;-53
2023/01/14 10:43:20;;;;;;;13.33;2.57;;;9.50;99.90;;;;;;5253224;28;22008;-52
2023/01/14 10:45:50;;;;;;;12.10;2.60;;;9.50;99.90;;;;;;5261362;28;20470;-52
2023/01/14 10:48:22;;;;;;;5.33;2.17;;;9.50;99.90;;;;;;5264725;28;20915;-53
2023/01/14 10:50:53;;;;;;;10.70;2.47;;;9.50;99.90;;;;;;5260208;28;21113;-54
2023/01/14 10:53:24;;;;;;;16.87;4.63;;;9.60;99.90;;;;;;5262996;28;20519;-54
2023/01/14 10:56:01;;;;;;;14.23;4.83;;;9.80;99.90;;;;;;5244414;28;20185;-54
2023/01/14 10:58:41;;;;;;;9.57;3.63;;;9.70;99.90;;;;;;5255682;28;20552;-52
2023/01/14 11:01:14;;;;;;;13.53;4.10;;;9.60;99.90;;;;;;5241666;28;20436;-52
2023/01/14 11:03:48;;;;;;;17.67;4.53;;;9.70;99.90;;;;;;5244918;28;20427;-53
2023/01/14 11:06:19;;;;;;;6.90;2.20;;;9.70;99.90;;;;;;5260209;28;20462;-54
2023/01/14 11:08:52;;;;;;;7.90;3.37;;;9.60;99.90;;;;;;5259589;28;20448;-54
2023/01/14 11:11:37;;;;;;;8.67;3.23;;;9.60;99.90;;;;;;5246343;28;20185;-53
2023/01/14 11:14:27;;;;;;;10.03;3.40;;;9.70;99.90;;;;;;5246398;28;20436;-54
2023/01/14 11:16:58;;;;;;;13.03;2.80;;;9.80;99.90;;;;;;5225266;28;20432;-54
2023/01/14 11:19:29;;;;;;;15.27;3.40;;;9.80;99.90;;;;;;5223318;28;20464;-54
2023/01/14 11:22:01;;;;;;;22.00;3.20;;;9.80;99.90;;;;;;5242401;28;20437;-52
2023/01/14 11:24:39;;;;;;;5.57;2.43;;;9.70;99.90;;;;;;5248594;28;20708;-54
2023/01/14 11:27:16;;;;;;;11.00;3.70;;;9.70;99.90;;;;;;5236216;28;20471;-54
2023/01/14 11:29:55;;;;;;;6.67;2.60;;;9.70;99.90;;;;;;5249455;28;20448;-54
2023/01/14 11:32:35;;;;;;;8.63;2.60;;;9.60;99.90;;;;;;5253004;28;20457;-54
2023/01/14 11:35:17;;;;;;;24.10;2.73;;;9.70;99.90;;;;;;5255044;28;20423;-51
2023/01/14 11:37:49;;;;;;;12.50;2.33;;;9.70;99.90;;;;;;5248540;28;20429;-52
2023/01/14 11:43:22;;;;;;;22.73;3.27;;;9.50;99.90;;;;;;5257081;28;20513;-53
2023/01/14 11:46:13;;;;;;;9.07;2.53;;;9.60;99.90;;;;;;5218334;28;20463;-53
2023/01/14 11:48:43;;;;;;;9.73;2.60;;;9.50;99.90;;;;;;5241993;28;20428;-51
2023/01/14 11:51:20;;;;;;;5.70;2.70;;;9.50;99.90;;;;;;5239711;28;20428;-52
2023/01/14 11:53:52;;;;;;;10.87;3.77;;;9.60;99.90;;;;;;5238825;28;20192;-51
2023/01/14 11:56:25;;;;;;;6.70;3.47;;;9.50;99.90;;;;;;5237862;28;20436;-49
2023/01/14 11:58:56;;;;;;;10.27;1.43;;;9.40;99.90;;;;;;5258724;28;20960;-48
2023/01/14 12:01:42;;;;;;;10.00;2.57;;;9.50;99.90;;;;;;5240589;28;20569;-51
2023/01/14 12:04:16;;;;;;;7.50;2.53;;;9.40;99.90;;;;;;5257291;28;20435;-53
2023/01/14 12:07:07;;;;;;;11.50;3.20;;;9.50;99.90;;;;;;5260539;28;20522;-47
2023/01/14 12:09:53;;;;;;;9.43;3.13;;;9.40;99.90;;;;;;5253831;28;20836;-48
2023/01/14 12:18:36;;;;;;;9.93;3.10;;;9.40;99.90;;;;;;5249619;28;21226;-50
2023/01/14 12:21:06;;;;;;;12.63;2.50;;;9.30;99.90;;;;;;5247827;28;21746;-52
2023/01/14 12:23:54;;;;;;;2.53;1.60;;;9.30;99.90;;;;;;5254019;28;20528;-48
2023/01/14 12:26:32;;;;;;;8.83;3.23;;;9.30;99.90;;;;;;5259233;28;20209;-50
2023/01/14 12:29:09;;;;;;;10.10;2.27;;;9.20;99.90;;;;;;5245102;28;20856;-48
2023/01/14 12:31:52;;;;;;;9.00;3.13;;;9.40;99.90;;;;;;5244326;28;20466;-49
2023/01/14 12:34:41;;;;;;;7.57;2.00;;;9.20;99.90;;;;;;5253303;28;20509;-53
2023/01/14 12:37:22;;;;;;;7.43;2.30;;;9.10;99.90;;;;;;5253576;28;20906;-49
2023/01/14 12:45:41;;;;;;;8.13;2.50;;;9.00;99.90;;;;;;5254185;28;20423;-49
2023/01/14 12:46:05;;;;;;;17.53;3.10;;;8.80;99.90;;;;;;5221821;28;20534;-51
2023/01/14 12:48:35;;;;;;;4.83;2.60;;;8.90;99.90;;;;;;5243003;28;20788;-51
2023/01/14 12:51:22;;;;;;;12.50;3.80;;;8.90;99.90;;;;;;5249978;28;20444;-48
2023/01/14 12:54:00;;;;;;;10.77;3.43;;;8.90;99.90;;;;;;5253456;28;20182;-51
2023/01/14 12:56:38;;;;;;;18.57;5.00;;;8.90;99.90;;;;;;5250713;28;20450;-49
2023/01/14 12:59:18;;;;;;;10.60;2.90;;;9.00;99.90;;;;;;5255669;28;20500;-51
2023/01/14 13:01:56;;;;;;;27.93;4.20;;;8.90;99.90;;;;;;5233594;28;20455;-48
2023/01/14 13:04:39;;;;;;;5.10;2.10;;;8.80;99.90;;;;;;5250028;28;20448;-50
2023/01/14 13:07:23;;;;;;;8.33;2.43;;;8.90;99.90;;;;;;5253545;28;20436;-51
2023/01/14 13:09:56;;;;;;;9.97;3.10;;;8.90;99.90;;;;;;5239087;28;20460;-50
2023/01/14 13:12:38;;;;;;;11.33;3.10;;;9.00;99.90;;;;;;5215142;28;20949;-50
2023/01/14 13:15:18;;;;;;;11.27;3.70;;;8.90;99.90;;;;;;5221595;28;20522;-52
2023/01/14 13:18:00;;;;;;;9.37;3.27;;;9.00;99.90;;;;;;5246917;28;20531;-51
2023/01/14 13:20:37;;;;;;;19.00;2.60;;;8.90;99.90;;;;;;5248824;28;20471;-50
2023/01/14 13:23:08;;;;;;;5.63;2.10;;;9.10;99.90;;;;;;5228710;28;20963;-50
2023/01/14 13:25:44;;;;;;;6.60;2.50;;;8.90;99.90;;;;;;5248412;28;20465;-50
2023/01/14 13:28:15;;;;;;;7.90;3.00;;;8.90;99.90;;;;;;5235411;28;20205;-50
2023/01/14 13:30:49;;;;;;;13.43;3.57;;;8.70;99.90;;;;;;5247223;28;20943;-50
2023/01/14 13:33:24;;;;;;;7.73;2.80;;;8.80;99.90;;;;;;5248348;28;20432;-50
2023/01/14 13:36:08;;;;;;;9.20;2.43;;;8.80;99.90;;;;;;5242748;28;20445;-49
2023/01/14 13:38:43;;;;;;;17.47;3.93;;;8.80;99.90;;;;;;5255615;28;20463;-50
2023/01/14 13:41:31;;;;;;;12.10;2.87;;;8.70;99.90;;;;;;5229896;28;20431;-50
2023/01/14 13:44:03;;;;;;;7.43;2.70;;;8.80;99.90;;;;;;5255428;28;20439;-50
2023/01/14 13:46:38;;;;;;;6.57;2.10;;;8.80;99.90;;;;;;5226967;28;20995;-52
2023/01/14 13:49:30;;;;;;;18.17;3.40;;;8.70;99.90;;;;;;5259319;28;20475;-51
2023/01/14 13:52:22;;;;;;;5.30;2.57;;;8.80;99.90;;;;;;5234810;28;20433;-50
2023/01/14 13:55:01;;;;;;;10.90;3.50;;;8.70;99.90;;;;;;5256412;28;20440;-50
2023/01/14 13:57:38;;;;;;;20.17;3.90;;;8.70;99.90;;;;;;5247643;28;20438;-50
2023/01/14 14:00:23;;;;;;;13.17;4.20;;;8.60;99.90;;;;;;5242713;28;20510;-50
2023/01/14 14:03:32;;;;;;;13.60;2.80;;;8.60;99.90;;;;;;5253172;28;20436;-50
2023/01/14 14:06:21;;;;;;;11.87;3.80;;;8.60;99.90;;;;;;5247833;28;20548;-52
2023/01/14 14:09:11;;;;;;;10.13;3.33;;;8.60;99.90;;;;;;5245222;28;20443;-51
2023/01/14 14:11:54;;;;;;;16.83;4.10;;;8.50;99.90;;;;;;5246908;28;20433;-51
2023/01/14 14:14:39;;;;;;;14.93;4.00;;;8.60;99.90;;;;;;5231774;28;20526;-51
2023/01/14 14:17:33;;;;;;;9.43;2.57;;;8.60;99.90;;;;;;5233337;28;20523;-50
2023/01/14 14:20:08;;;;;;;11.33;3.40;;;8.60;99.90;;;;;;5244544;28;20479;-51
2023/01/14 14:22:57;;;;;;;6.87;2.60;;;8.50;99.90;;;;;;5226796;28;20425;-49
2023/01/14 14:25:38;;;;;;;16.57;3.70;;;8.50;99.90;;;;;;5250628;28;20529;-50
2023/01/14 14:28:16;;;;;;;19.43;3.73;;;8.20;99.90;;;;;;5249150;28;20507;-50